createdAt,value
2018-09-24T00:01:44.749Z,9.60
2018-09-24T00:04:12.825Z,9.60
2018-09-24T00:06:40.913Z,9.50
2018-09-24T00:09:09.516Z,9.50
2018-09-24T00:11:37.673Z,9.50
2018-09-24T00:14:05.867Z,9.50
2018-09-24T00:16:33.965Z,9.50
2018-09-24T00:19:02.031Z,9.60
2018-09-24T00:21:30.488Z,9.60
2018-09-24T00:23:58.561Z,9.50
2018-09-24T00:26:26.633Z,9.50
2018-09-24T00:28:54.726Z,9.50
2018-09-24T00:31:22.798Z,9.50
2018-09-24T00:33:50.849Z,9.50
2018-09-24T00:36:18.910Z,9.50
2018-09-24T00:38:46.966Z,9.60
2018-09-24T00:41:15.026Z,9.60
2018-09-24T00:43:43.100Z,9.60
2018-09-24T00:46:11.195Z,9.70
2018-09-24T00:48:39.249Z,9.70
2018-09-24T00:51:07.319Z,9.70
2018-09-24T00:53:35.363Z,9.70
2018-09-24T00:56:03.428Z,9.70
2018-09-24T00:58:31.490Z,9.60
2018-09-24T01:00:59.554Z,9.50
2018-09-24T01:03:27.610Z,9.50
2018-09-24T01:05:55.664Z,9.60
2018-09-24T01:08:23.774Z,9.60
2018-09-24T01:10:51.856Z,9.50
2018-09-24T01:13:19.897Z,9.60
2018-09-24T01:15:47.957Z,9.60
2018-09-24T01:18:16.123Z,9.60
2018-09-24T01:20:44.188Z,9.60
2018-09-24T01:23:12.241Z,9.60
2018-09-24T01:25:40.320Z,9.60
2018-09-24T01:28:08.381Z,9.70
2018-09-24T01:30:36.457Z,9.70
2018-09-24T01:33:04.543Z,9.70
2018-09-24T01:35:32.616Z,9.70
2018-09-24T01:38:00.665Z,9.70
2018-09-24T01:40:28.705Z,9.60
2018-09-24T01:42:56.754Z,9.70
2018-09-24T01:45:24.837Z,9.70
2018-09-24T01:47:52.874Z,9.70
2018-09-24T01:50:20.938Z,9.60
2018-09-24T01:52:48.993Z,9.60
2018-09-24T01:55:17.038Z,9.70
2018-09-24T01:57:45.089Z,9.70
2018-09-24T02:00:13.149Z,9.80
2018-09-24T02:02:41.201Z,9.80
2018-09-24T02:05:14.345Z,9.70
2018-09-24T02:07:42.441Z,9.80
2018-09-24T02:10:10.527Z,9.80
2018-09-24T02:12:38.570Z,9.70
2018-09-24T02:15:06.665Z,9.70
2018-09-24T02:17:34.725Z,9.70
2018-09-24T02:20:02.776Z,9.70
2018-09-24T02:22:31.146Z,9.60
2018-09-24T02:24:59.850Z,9.50
2018-09-24T02:27:28.034Z,9.60
2018-09-24T02:29:56.154Z,9.60
2018-09-24T02:32:24.216Z,9.60
2018-09-24T02:34:54.687Z,9.60
2018-09-24T02:37:22.762Z,9.60
2018-09-24T02:39:50.845Z,9.60
2018-09-24T02:42:18.895Z,9.60
2018-09-24T02:44:52.761Z,9.60
2018-09-24T02:47:20.829Z,9.60
2018-09-24T02:49:48.896Z,9.60
2018-09-24T02:52:16.966Z,9.50
2018-09-24T02:54:45.038Z,9.50
2018-09-24T02:57:13.110Z,9.50
2018-09-24T02:59:44.625Z,9.60
2018-09-24T03:02:12.676Z,9.50
2018-09-24T03:04:40.746Z,9.60
2018-09-24T03:07:08.800Z,9.60
2018-09-24T03:09:36.850Z,9.60
2018-09-24T03:12:04.921Z,9.60
2018-09-24T03:14:32.980Z,9.60
2018-09-24T03:17:01.037Z,9.50
2018-09-24T03:19:29.109Z,9.50
2018-09-24T03:21:57.189Z,9.50
2018-09-24T03:24:25.261Z,9.50
2018-09-24T03:26:53.318Z,9.50
2018-09-24T03:29:23.337Z,9.50
2018-09-24T03:31:51.805Z,9.50
2018-09-24T03:34:20.086Z,9.50
2018-09-24T03:36:48.983Z,9.50
2018-09-24T03:39:17.253Z,9.50
2018-09-24T03:41:45.665Z,9.50
2018-09-24T03:44:13.737Z,9.60
2018-09-24T03:46:42.084Z,9.60
2018-09-24T03:49:10.545Z,9.60
2018-09-24T03:51:38.945Z,9.70
2018-09-24T03:54:07.539Z,9.60
2018-09-24T03:56:35.631Z,9.60
2018-09-24T03:59:03.784Z,9.60
2018-09-24T04:01:31.762Z,9.60
2018-09-24T04:04:05.240Z,9.60
2018-09-24T04:06:38.864Z,9.60
2018-09-24T04:09:13.644Z,9.50
2018-09-24T04:11:47.545Z,9.50
2018-09-24T04:14:21.014Z,9.50
2018-09-24T04:16:54.615Z,9.50
2018-09-24T04:19:28.269Z,9.50
2018-09-24T04:22:01.845Z,9.50
2018-09-24T04:24:35.546Z,9.40
2018-09-24T04:27:08.929Z,9.40
2018-09-24T04:29:42.411Z,9.50
2018-09-24T04:32:15.969Z,9.40
2018-09-24T04:34:49.510Z,9.30
2018-09-24T04:37:23.110Z,9.30
2018-09-24T04:39:56.766Z,9.30
2018-09-24T04:42:30.402Z,9.30
2018-09-24T04:45:03.873Z,9.10
2018-09-24T04:47:37.385Z,9.10
2018-09-24T04:50:10.874Z,9.00
2018-09-24T04:52:44.207Z,8.90
2018-09-24T04:55:17.582Z,8.90
2018-09-24T04:57:51.099Z,8.90
2018-09-24T05:00:24.701Z,8.80
2018-09-24T05:03:04.754Z,8.70
2018-09-24T05:05:38.341Z,8.60
2018-09-24T05:08:11.950Z,8.60
2018-09-24T05:10:45.455Z,8.50
2018-09-24T05:13:18.971Z,8.40
2018-09-24T05:15:52.626Z,8.40
2018-09-24T05:18:26.360Z,8.40
2018-09-24T05:20:59.863Z,8.40
2018-09-24T05:23:33.505Z,8.40
2018-09-24T05:26:07.042Z,8.40
2018-09-24T05:28:40.580Z,8.40
2018-09-24T05:31:14.251Z,8.40
2018-09-24T05:33:47.810Z,8.40
2018-09-24T05:36:21.390Z,8.40
2018-09-24T05:38:54.839Z,8.30
2018-09-24T05:41:28.314Z,8.30
2018-09-24T05:44:02.097Z,8.30
2018-09-24T05:46:35.554Z,8.30
2018-09-24T05:49:09.077Z,8.30
2018-09-24T05:51:42.633Z,8.30
2018-09-24T05:54:16.235Z,8.90
2018-09-24T05:56:50.020Z,9.20
2018-09-24T05:59:23.590Z,9.00
2018-09-24T06:01:57.329Z,8.80
2018-09-24T06:04:31.027Z,8.70
2018-09-24T06:07:04.677Z,8.60
2018-09-24T06:09:38.222Z,8.60
2018-09-24T06:12:11.818Z,8.60
2018-09-24T06:14:45.251Z,8.60
2018-09-24T06:17:18.890Z,8.60
2018-09-24T06:19:52.393Z,8.60
2018-09-24T06:22:25.944Z,8.60
2018-09-24T06:24:59.457Z,8.70
2018-09-24T06:27:33.105Z,8.70
2018-09-24T06:30:06.603Z,8.80
2018-09-24T06:32:40.608Z,8.90
2018-09-24T06:35:13.870Z,8.90
2018-09-24T06:37:47.389Z,9.00
2018-09-24T06:40:20.834Z,9.10
2018-09-24T06:42:54.275Z,9.20
2018-09-24T06:45:27.944Z,9.10
2018-09-24T06:48:01.516Z,9.10
2018-09-24T06:50:35.085Z,9.20
2018-09-24T06:53:08.661Z,9.30
2018-09-24T06:55:42.168Z,9.40
2018-09-24T06:58:15.825Z,9.50
2018-09-24T07:00:49.490Z,9.60
2018-09-24T07:03:23.062Z,9.70
2018-09-24T07:05:56.562Z,9.80
2018-09-24T07:08:30.170Z,9.80
2018-09-24T07:11:03.704Z,9.90
2018-09-24T07:13:37.247Z,10.00
2018-09-24T07:16:10.779Z,10.00
2018-09-24T07:18:44.420Z,10.10
2018-09-24T07:21:17.996Z,10.10
2018-09-24T07:23:51.626Z,10.20
2018-09-24T07:26:25.186Z,10.20
2018-09-24T07:28:58.667Z,10.30
2018-09-24T07:31:32.193Z,10.40
2018-09-24T07:34:05.822Z,10.50
2018-09-24T07:36:39.350Z,10.70
2018-09-24T07:39:14.595Z,10.90
2018-09-24T07:41:49.006Z,10.90
2018-09-24T07:44:22.717Z,11.00
2018-09-24T07:46:56.230Z,11.10
2018-09-24T07:49:30.042Z,11.30
2018-09-24T07:52:03.729Z,11.40
2018-09-24T07:54:37.629Z,11.50
2018-09-24T07:57:11.307Z,11.50
2018-09-24T07:59:44.687Z,11.60
2018-09-24T08:02:18.329Z,11.80
2018-09-24T08:04:52.201Z,12.00
2018-09-24T08:07:25.935Z,11.90
2018-09-24T08:09:59.445Z,11.90
2018-09-24T08:12:33.049Z,12.00
2018-09-24T08:15:06.661Z,12.20
2018-09-24T08:17:40.253Z,12.30
2018-09-24T08:20:13.913Z,12.20
2018-09-24T08:22:47.338Z,12.30
2018-09-24T08:25:20.990Z,12.40
2018-09-24T08:27:54.565Z,12.30
2018-09-24T08:30:28.146Z,12.30
2018-09-24T08:33:01.801Z,12.30
2018-09-24T08:35:35.338Z,12.20
2018-09-24T08:38:08.993Z,12.30
2018-09-24T08:40:42.566Z,12.30
2018-09-24T08:43:15.925Z,12.30
2018-09-24T08:45:49.438Z,12.30
2018-09-24T08:48:23.072Z,12.40
2018-09-24T08:50:56.538Z,12.60
2018-09-24T08:53:30.153Z,12.50
2018-09-24T08:56:03.648Z,12.60
2018-09-24T08:58:37.157Z,12.70
2018-09-24T09:01:10.690Z,12.90
2018-09-24T09:03:44.638Z,13.40
2018-09-24T09:06:18.288Z,13.80
2018-09-24T09:08:51.992Z,13.50
2018-09-24T09:11:25.575Z,13.20
2018-09-24T09:13:59.417Z,13.30
2018-09-24T09:16:32.989Z,13.40
2018-09-24T09:19:06.557Z,13.90
2018-09-24T09:21:40.438Z,14.30
2018-09-24T09:24:13.842Z,14.30
2018-09-24T09:26:47.534Z,14.50
2018-09-24T09:29:20.966Z,14.40
2018-09-24T09:31:54.633Z,14.40
2018-09-24T09:34:28.428Z,14.40
2018-09-24T09:37:01.978Z,14.50
2018-09-24T09:39:35.654Z,14.50
2018-09-24T09:42:09.362Z,14.60
2018-09-24T09:44:43.025Z,14.90
2018-09-24T09:47:16.605Z,15.10
2018-09-24T09:49:50.057Z,14.70
2018-09-24T09:52:23.755Z,14.70
2018-09-24T09:54:57.430Z,14.90
2018-09-24T09:57:31.071Z,14.90
2018-09-24T10:00:04.765Z,14.60
2018-09-24T10:02:38.341Z,14.80
2018-09-24T10:05:12.011Z,14.70
2018-09-24T10:07:45.622Z,14.90
2018-09-24T10:10:19.373Z,15.40
2018-09-24T10:12:52.950Z,15.30
2018-09-24T10:15:26.413Z,15.30
2018-09-24T10:18:00.027Z,15.80
2018-09-24T10:20:33.481Z,15.90
2018-09-24T10:23:07.073Z,16.20
2018-09-24T10:25:40.700Z,16.10
2018-09-24T10:28:14.169Z,15.70
2018-09-24T10:30:47.754Z,15.70
2018-09-24T10:33:21.318Z,15.30
2018-09-24T10:35:54.941Z,15.00
2018-09-24T10:38:28.405Z,15.40
2018-09-24T10:41:02.214Z,15.40
2018-09-24T10:43:35.721Z,15.50
2018-09-24T10:46:09.407Z,16.00
2018-09-24T10:48:42.947Z,16.60
2018-09-24T10:51:16.548Z,16.80
2018-09-24T10:53:50.089Z,16.70
2018-09-24T10:56:23.456Z,16.60
2018-09-24T10:58:57.080Z,16.50
2018-09-24T11:01:30.777Z,16.50
2018-09-24T11:04:04.345Z,16.70
2018-09-24T11:06:37.902Z,16.20
2018-09-24T11:09:13.496Z,16.00
2018-09-24T11:11:47.107Z,16.00
2018-09-24T11:14:20.902Z,16.90
2018-09-24T11:16:54.648Z,17.40
2018-09-24T11:19:27.985Z,16.80
2018-09-24T11:22:01.596Z,16.70
2018-09-24T11:24:35.208Z,17.40
2018-09-24T11:27:08.772Z,17.70
2018-09-24T11:29:42.338Z,17.70
2018-09-24T11:32:15.895Z,18.00
2018-09-24T11:34:49.529Z,18.70
2018-09-24T11:37:22.924Z,18.80
2018-09-24T11:39:56.374Z,18.40
2018-09-24T11:42:30.015Z,17.60
2018-09-24T11:45:03.527Z,18.00
2018-09-24T11:47:37.225Z,18.00
2018-09-24T11:50:10.837Z,17.20
2018-09-24T11:52:44.387Z,16.80
2018-09-24T11:55:17.953Z,16.90
2018-09-24T11:57:51.361Z,17.80
2018-09-24T12:00:25.272Z,18.00
2018-09-24T12:02:58.777Z,17.10
2018-09-24T12:05:32.229Z,16.70
2018-09-24T12:08:05.749Z,17.10
2018-09-24T12:10:39.438Z,18.30
2018-09-24T12:13:12.850Z,19.40
2018-09-24T12:15:46.633Z,20.40
2018-09-24T12:18:20.093Z,20.60
2018-09-24T12:20:53.952Z,21.00
2018-09-24T12:23:27.462Z,20.70
2018-09-24T12:26:01.377Z,19.80
2018-09-24T12:28:35.090Z,17.90
2018-09-24T12:31:08.682Z,16.80
2018-09-24T12:33:42.124Z,17.10
2018-09-24T12:36:22.781Z,19.10
2018-09-24T12:38:56.390Z,19.60
2018-09-24T12:41:29.862Z,18.50
2018-09-24T12:44:03.516Z,19.40
2018-09-24T12:46:37.145Z,21.10
2018-09-24T12:49:10.721Z,21.00
2018-09-24T12:51:44.190Z,21.20
2018-09-24T12:54:17.844Z,20.40
2018-09-24T12:56:51.426Z,18.90
2018-09-24T12:59:25.033Z,17.70
2018-09-24T13:01:58.506Z,18.20
2018-09-24T13:04:32.065Z,20.40
2018-09-24T13:07:05.744Z,20.00
2018-09-24T13:09:39.441Z,20.10
2018-09-24T13:12:13.129Z,18.90
2018-09-24T13:14:46.646Z,17.70
2018-09-24T13:17:20.007Z,16.90
2018-09-24T13:19:53.466Z,15.70
2018-09-24T13:22:26.934Z,14.60
2018-09-24T13:25:00.434Z,14.10
2018-09-24T13:27:34.027Z,13.70
2018-09-24T13:30:07.634Z,13.40
2018-09-24T13:32:41.194Z,13.10
2018-09-24T13:35:14.849Z,12.90
2018-09-24T13:37:48.354Z,13.30
2018-09-24T13:40:21.797Z,13.10
2018-09-24T13:42:55.316Z,13.00
2018-09-24T13:45:28.778Z,12.60
2018-09-24T13:48:02.323Z,12.60
2018-09-24T13:50:35.817Z,13.50
2018-09-24T13:53:09.215Z,13.50
2018-09-24T13:55:42.794Z,13.10
2018-09-24T13:58:16.418Z,12.80
2018-09-24T14:00:49.934Z,12.50
2018-09-24T14:03:23.415Z,12.30
2018-09-24T14:05:57.045Z,12.10
2018-09-24T14:08:30.449Z,12.00
2018-09-24T14:11:04.162Z,11.80
2018-09-24T14:13:37.658Z,11.70
2018-09-24T14:16:11.210Z,11.60
2018-09-24T14:18:44.861Z,11.40
2018-09-24T14:21:18.341Z,11.30
2018-09-24T14:23:51.809Z,11.10
2018-09-24T14:26:25.293Z,10.90
2018-09-24T14:28:58.926Z,10.80
2018-09-24T14:31:32.533Z,10.70
2018-09-24T14:34:06.194Z,10.80
2018-09-24T14:36:39.765Z,10.80
2018-09-24T14:39:13.934Z,10.80
2018-09-24T14:41:48.032Z,11.10
2018-09-24T14:44:21.424Z,11.40
2018-09-24T14:46:54.861Z,11.60
2018-09-24T14:49:29.221Z,11.70
2018-09-24T14:52:02.807Z,11.60
2018-09-24T14:54:36.436Z,11.70
2018-09-24T14:57:09.949Z,11.70
2018-09-24T14:59:43.477Z,11.70
2018-09-24T15:02:17.066Z,11.70
2018-09-24T15:04:50.529Z,11.80
2018-09-24T15:07:24.058Z,11.70
2018-09-24T15:09:57.688Z,11.70
2018-09-24T15:12:31.297Z,11.50
2018-09-24T15:15:04.918Z,11.40
2018-09-24T15:17:38.447Z,11.30
2018-09-24T15:20:12.077Z,11.20
2018-09-24T15:22:45.461Z,11.20
2018-09-24T15:25:19.047Z,11.20
2018-09-24T15:27:52.581Z,11.20
2018-09-24T15:30:26.098Z,11.20
2018-09-24T15:32:59.573Z,11.20
2018-09-24T15:35:33.100Z,11.20
2018-09-24T15:38:06.565Z,11.10
2018-09-24T15:40:40.104Z,11.20
2018-09-24T15:43:13.704Z,11.20
2018-09-24T15:45:47.151Z,11.30
2018-09-24T15:48:20.669Z,11.30
2018-09-24T15:50:54.158Z,11.20
2018-09-24T15:53:27.638Z,11.20
2018-09-24T15:56:01.199Z,11.20
2018-09-24T15:58:34.764Z,11.20
2018-09-24T16:01:08.368Z,11.20
2018-09-24T16:03:41.878Z,11.10
2018-09-24T16:06:15.354Z,11.00
2018-09-24T16:08:48.891Z,11.00
2018-09-24T16:11:22.578Z,11.00
2018-09-24T16:13:56.074Z,11.00
2018-09-24T16:16:29.590Z,11.00
2018-09-24T16:19:03.310Z,10.90
2018-09-24T16:21:37.030Z,10.90
2018-09-24T16:24:10.377Z,10.80
2018-09-24T16:26:43.933Z,10.80
2018-09-24T16:29:17.545Z,10.80
2018-09-24T16:31:51.178Z,10.90
2018-09-24T16:34:24.741Z,10.90
2018-09-24T16:36:58.292Z,10.80
2018-09-24T16:39:31.769Z,10.80
2018-09-24T16:42:05.271Z,10.80
2018-09-24T16:44:38.909Z,10.80
2018-09-24T16:47:12.642Z,10.60
2018-09-24T16:49:46.296Z,10.60
2018-09-24T16:52:19.898Z,10.60
2018-09-24T16:54:53.412Z,10.50
2018-09-24T16:57:27.082Z,10.50
2018-09-24T17:00:00.641Z,10.50
2018-09-24T17:02:34.267Z,10.50
2018-09-24T17:05:07.807Z,10.50
2018-09-24T17:07:41.389Z,10.40
2018-09-24T17:10:14.869Z,10.30
2018-09-24T17:12:48.382Z,10.30
2018-09-24T17:15:22.123Z,10.40
2018-09-24T17:17:55.697Z,10.40
2018-09-24T17:20:29.347Z,10.40
2018-09-24T17:23:02.909Z,10.40
2018-09-24T17:25:36.557Z,10.40
2018-09-24T17:28:10.078Z,10.40
2018-09-24T17:30:43.624Z,10.80
2018-09-24T17:33:17.070Z,11.00
2018-09-24T17:35:50.772Z,11.30
2018-09-24T17:38:24.305Z,11.40
2018-09-24T17:40:57.821Z,11.20
2018-09-24T17:43:31.287Z,10.90
2018-09-24T17:46:04.866Z,10.80
2018-09-24T17:48:38.441Z,10.70
2018-09-24T17:51:12.047Z,10.50
2018-09-24T17:53:45.374Z,10.40
2018-09-24T17:56:19.030Z,10.40
2018-09-24T17:58:52.518Z,10.30
2018-09-24T18:01:25.993Z,10.30
2018-09-24T18:03:59.688Z,10.20
2018-09-24T18:06:36.519Z,10.10
2018-09-24T18:09:12.000Z,10.10
2018-09-24T18:11:46.198Z,10.00
2018-09-24T18:14:19.718Z,10.00
2018-09-24T18:16:53.325Z,9.90
2018-09-24T18:19:26.945Z,9.90
2018-09-24T18:22:00.541Z,9.80
2018-09-24T18:24:34.085Z,9.80
2018-09-24T18:27:07.520Z,9.80
2018-09-24T18:29:41.157Z,9.80
2018-09-24T18:32:14.560Z,9.80
2018-09-24T18:34:48.179Z,9.80
2018-09-24T18:37:21.870Z,9.80
2018-09-24T18:39:55.208Z,9.80
2018-09-24T18:42:28.772Z,9.70
2018-09-24T18:45:02.273Z,9.70
2018-09-24T18:47:35.821Z,9.60
2018-09-24T18:50:09.386Z,9.60
2018-09-24T18:52:42.880Z,9.60
2018-09-24T18:55:16.433Z,9.50
2018-09-24T18:57:49.888Z,9.50
2018-09-24T19:00:23.481Z,9.50
2018-09-24T19:02:56.978Z,9.50
2018-09-24T19:05:30.605Z,9.50
2018-09-24T19:08:04.101Z,9.40
2018-09-24T19:10:37.531Z,9.50
2018-09-24T19:13:11.149Z,9.40
2018-09-24T19:15:44.861Z,9.40
2018-09-24T19:18:18.366Z,9.40
2018-09-24T19:20:51.946Z,9.40
2018-09-24T19:23:25.437Z,9.40
2018-09-24T19:25:58.917Z,9.40
2018-09-24T19:28:32.406Z,9.50
2018-09-24T19:31:06.054Z,9.50
2018-09-24T19:33:39.585Z,9.50
2018-09-24T19:36:13.207Z,9.50
2018-09-24T19:38:46.756Z,9.50
2018-09-24T19:41:20.766Z,9.50
2018-09-24T19:43:54.217Z,9.40
2018-09-24T19:46:27.985Z,9.40
2018-09-24T19:49:01.620Z,9.40
2018-09-24T19:51:35.332Z,9.30
2018-09-24T19:54:08.980Z,9.30
2018-09-24T19:56:42.661Z,9.30
2018-09-24T19:59:16.308Z,9.30
2018-09-24T20:01:49.975Z,9.30
2018-09-24T20:04:23.641Z,9.30
2018-09-24T20:06:58.368Z,9.30
2018-09-24T20:09:32.826Z,9.30
2018-09-24T20:12:06.859Z,9.30
2018-09-24T20:14:40.628Z,9.30
2018-09-24T20:17:14.595Z,9.40
2018-09-24T20:19:48.459Z,9.30
2018-09-24T20:22:22.444Z,9.30
2018-09-24T20:24:56.608Z,9.40
2018-09-24T20:27:30.825Z,9.40
2018-09-24T20:30:04.613Z,9.40
2018-09-24T20:32:38.629Z,9.40
2018-09-24T20:35:12.828Z,9.40
2018-09-24T20:37:46.768Z,9.40
2018-09-24T20:40:20.994Z,9.30
2018-09-24T20:42:55.109Z,9.20
2018-09-24T20:45:29.002Z,9.20
2018-09-24T20:48:03.406Z,9.10
2018-09-24T20:50:37.250Z,9.10
2018-09-24T20:53:11.225Z,9.00
2018-09-24T20:55:44.606Z,9.00
2018-09-24T20:58:18.138Z,9.00
2018-09-24T21:00:51.633Z,9.00
2018-09-24T21:03:25.039Z,8.90
2018-09-24T21:05:58.458Z,8.80
2018-09-24T21:08:31.882Z,8.80
2018-09-24T21:11:05.468Z,8.70
2018-09-24T21:13:39.165Z,8.70
2018-09-24T21:16:12.925Z,8.70
2018-09-24T21:18:46.417Z,8.60
2018-09-24T21:21:20.099Z,8.60
2018-09-24T21:23:53.529Z,8.60
2018-09-24T21:26:27.040Z,8.50
2018-09-24T21:29:00.501Z,8.50
2018-09-24T21:31:33.996Z,8.50
2018-09-24T21:34:07.547Z,8.50
2018-09-24T21:36:41.052Z,8.50
2018-09-24T21:39:14.650Z,8.50
2018-09-24T21:41:48.113Z,8.50
2018-09-24T21:44:21.630Z,8.50
2018-09-24T21:46:55.160Z,8.50
2018-09-24T21:49:28.670Z,8.50
2018-09-24T21:52:02.229Z,8.50
2018-09-24T21:54:35.813Z,8.40
2018-09-24T21:57:09.359Z,8.40
2018-09-24T21:59:42.926Z,8.40
2018-09-24T22:02:16.597Z,8.40
2018-09-24T22:04:50.066Z,8.40
2018-09-24T22:07:23.689Z,8.30
2018-09-24T22:09:57.164Z,8.30
2018-09-24T22:12:30.782Z,8.30
2018-09-24T22:15:04.401Z,8.20
2018-09-24T22:17:37.949Z,8.20
2018-09-24T22:20:11.272Z,8.10
2018-09-24T22:22:44.989Z,8.10
2018-09-24T22:25:18.630Z,8.10
2018-09-24T22:27:52.195Z,8.10
2018-09-24T22:30:25.829Z,8.00
2018-09-24T22:32:59.182Z,8.00
2018-09-24T22:35:32.762Z,8.00
2018-09-24T22:38:06.268Z,7.90
2018-09-24T22:40:39.817Z,7.90
2018-09-24T22:43:13.496Z,7.90
2018-09-24T22:45:47.066Z,7.90
2018-09-24T22:48:20.734Z,7.90
2018-09-24T22:50:54.358Z,7.90
2018-09-24T22:53:28.069Z,7.80
2018-09-24T22:56:01.396Z,7.80
2018-09-24T22:58:35.001Z,7.80
2018-09-24T23:01:08.422Z,7.80
2018-09-24T23:03:42.096Z,7.70
2018-09-24T23:06:15.709Z,7.70
2018-09-24T23:08:49.255Z,7.70
2018-09-24T23:11:22.755Z,7.70
2018-09-24T23:13:56.146Z,7.70
2018-09-24T23:16:29.793Z,7.60
2018-09-24T23:19:03.393Z,7.60
2018-09-24T23:21:36.798Z,7.60
2018-09-24T23:24:10.378Z,7.50
2018-09-24T23:26:43.976Z,7.50
2018-09-24T23:29:17.509Z,7.50
2018-09-24T23:31:51.154Z,7.50
2018-09-24T23:34:24.645Z,7.40
2018-09-24T23:36:58.037Z,7.40
2018-09-24T23:39:31.646Z,7.40
2018-09-24T23:42:05.117Z,7.40
2018-09-24T23:44:38.533Z,7.30
2018-09-24T23:47:12.381Z,7.30
2018-09-24T23:49:45.870Z,7.30
2018-09-24T23:52:19.425Z,7.20
2018-09-24T23:54:52.877Z,7.20
2018-09-24T23:57:26.372Z,7.20
2018-09-24T23:59:59.958Z,7.20
